Terminal Aerodrome Forecast
Issued by NWS Billings, MT

Home | Current Version | Previous Version | Graphics & Text | Print | Product List | Glossary On
Versions: 1 2 3 4 5 6 7 8 9 10 11 12 13 14 15 16 17 18
000
FTUS45 KBYZ 280521
TAFMLS
TAF
KMLS 280521Z 2806/2906 33006KT P6SM VCTS BKN080CB
     FM280900 04008KT P6SM SCT100
     FM281200 05006KT P6SM FEW100
     FM281800 06008KT P6SM VCTS BKN080CB=

USA.gov is the U.S. government's official web portal to all federal, state and local government web resources and services.